createdAt,value
2019-03-30T05:00:56.002Z,2.89
2019-03-30T05:01:56.171Z,2.87
2019-03-30T05:02:56.341Z,2.79
2019-03-30T05:03:56.510Z,2.68
2019-03-30T05:04:56.685Z,2.67
2019-03-30T05:05:56.858Z,2.69
2019-03-30T05:06:57.027Z,2.79
2019-03-30T05:07:57.194Z,2.72
2019-03-30T05:08:57.363Z,2.64
2019-03-30T05:09:57.536Z,2.65
2019-03-30T05:10:57.701Z,2.68
2019-03-30T05:11:57.874Z,2.57
2019-03-30T05:12:58.041Z,2.64
2019-03-30T05:13:58.214Z,2.62
2019-03-30T05:14:58.382Z,2.64
2019-03-30T05:15:58.547Z,2.64
2019-03-30T05:16:58.715Z,2.62
2019-03-30T05:17:58.885Z,2.64
2019-03-30T05:18:59.057Z,2.64
2019-03-30T05:19:59.224Z,2.67
2019-03-30T05:20:59.391Z,2.68
2019-03-30T05:22:11.593Z,2.77
2019-03-30T05:22:59.733Z,2.54
2019-03-30T05:23:59.900Z,2.61
2019-03-30T05:25:00.239Z,2.65
2019-03-30T05:26:00.241Z,2.64
2019-03-30T05:27:00.411Z,2.61
2019-03-30T05:28:00.580Z,2.77
2019-03-30T05:29:00.752Z,2.65
2019-03-30T05:30:00.938Z,2.56
2019-03-30T05:31:01.092Z,2.65
2019-03-30T05:32:01.247Z,2.53
2019-03-30T05:33:06.016Z,2.61
2019-03-30T05:34:01.585Z,2.68
2019-03-30T05:35:01.754Z,2.60
2019-03-30T05:36:01.926Z,2.64
2019-03-30T05:37:02.094Z,2.69
2019-03-30T05:38:02.282Z,2.65
2019-03-30T05:39:02.447Z,2.68
2019-03-30T05:40:02.614Z,2.64
2019-03-30T05:41:02.782Z,2.75
2019-03-30T05:42:02.951Z,2.75
2019-03-30T05:43:03.119Z,2.72
2019-03-30T05:44:03.301Z,2.82
2019-03-30T05:45:03.470Z,2.79
2019-03-30T05:46:03.630Z,2.80
2019-03-30T05:47:03.797Z,2.87
2019-03-30T05:48:03.964Z,2.83
2019-03-30T05:49:04.130Z,2.80
2019-03-30T05:50:04.293Z,2.86
2019-03-30T05:51:04.461Z,2.93
2019-03-30T05:52:04.645Z,2.98
2019-03-30T05:53:04.811Z,2.90
2019-03-30T05:54:04.982Z,2.93
2019-03-30T05:55:05.150Z,2.93
2019-03-30T05:56:05.318Z,2.89
2019-03-30T05:57:05.489Z,2.92
2019-03-30T05:58:05.662Z,2.93
2019-03-30T05:59:05.834Z,2.92
2019-03-30T06:00:06.002Z,3.05
2019-03-30T06:01:06.171Z,3.05
2019-03-30T06:02:06.341Z,3.10
2019-03-30T06:03:06.508Z,3.10
2019-03-30T06:04:06.677Z,3.13
2019-03-30T06:05:06.850Z,3.14
2019-03-30T06:06:07.022Z,3.25
2019-03-30T06:07:07.189Z,3.21
2019-03-30T06:08:07.418Z,3.19
2019-03-30T06:09:07.528Z,3.13
2019-03-30T06:10:07.700Z,3.14
2019-03-30T06:11:07.872Z,3.10
2019-03-30T06:12:08.050Z,3.23
2019-03-30T06:13:08.232Z,3.25
2019-03-30T06:14:08.400Z,3.25
2019-03-30T06:15:08.573Z,3.29
2019-03-30T06:16:08.745Z,3.26
2019-03-30T06:17:08.936Z,3.29
2019-03-30T06:18:11.398Z,3.29
2019-03-30T06:19:09.250Z,3.48
2019-03-30T06:20:09.421Z,3.36
2019-03-30T06:21:09.590Z,3.62
2019-03-30T06:22:09.762Z,3.60
2019-03-30T06:23:09.928Z,3.59
2019-03-30T06:24:10.102Z,3.63
2019-03-30T06:25:10.265Z,3.66
2019-03-30T06:26:10.437Z,3.60
2019-03-30T06:27:10.605Z,3.81
2019-03-30T06:28:10.772Z,3.83
2019-03-30T06:29:10.941Z,3.88
2019-03-30T06:30:11.110Z,4.05
2019-03-30T06:31:11.281Z,3.99
2019-03-30T06:32:11.451Z,4.08
2019-03-30T06:33:11.619Z,4.19
2019-03-30T06:34:11.790Z,4.26
2019-03-30T06:35:11.960Z,4.35
2019-03-30T06:36:12.128Z,4.38
2019-03-30T06:37:12.295Z,4.32
2019-03-30T06:38:12.463Z,4.55
2019-03-30T06:39:12.633Z,4.50
2019-03-30T06:40:12.806Z,4.55
2019-03-30T06:41:12.976Z,4.67
2019-03-30T06:42:13.146Z,4.74
2019-03-30T06:43:13.319Z,4.70
2019-03-30T06:44:13.485Z,4.67
2019-03-30T06:45:13.654Z,4.90
2019-03-30T06:46:13.826Z,4.86
2019-03-30T06:47:13.994Z,4.94
2019-03-30T06:48:14.165Z,4.93
2019-03-30T06:49:14.335Z,5.04
2019-03-30T06:50:14.504Z,5.02
2019-03-30T06:51:14.676Z,5.08
2019-03-30T06:52:14.844Z,5.15
2019-03-30T06:53:15.014Z,5.21
2019-03-30T06:54:15.185Z,5.17
2019-03-30T06:55:15.356Z,5.28
2019-03-30T06:56:15.524Z,5.20
2019-03-30T06:57:15.696Z,5.36
2019-03-30T06:58:15.868Z,5.32
2019-03-30T06:59:16.034Z,5.33
2019-03-30T07:00:16.205Z,5.47
2019-03-30T07:01:16.374Z,5.65
2019-03-30T07:02:16.542Z,5.66
2019-03-30T07:03:16.713Z,5.69
2019-03-30T07:04:16.883Z,5.84
2019-03-30T07:05:17.057Z,5.86
2019-03-30T07:06:17.226Z,5.98
2019-03-30T07:07:17.395Z,6.05
2019-03-30T07:08:17.564Z,6.14
2019-03-30T07:09:17.736Z,6.17
2019-03-30T07:10:17.905Z,6.20
2019-03-30T07:11:21.331Z,6.26
2019-03-30T07:12:18.246Z,6.22
2019-03-30T07:13:18.419Z,6.31
2019-03-30T07:14:18.587Z,6.45
2019-03-30T07:15:18.764Z,6.46
2019-03-30T07:16:18.933Z,6.46
2019-03-30T07:17:19.104Z,6.74
2019-03-30T07:18:19.274Z,6.84
2019-03-30T07:19:19.455Z,7.05
2019-03-30T07:20:19.625Z,7.20
2019-03-30T07:21:19.798Z,7.36
2019-03-30T07:22:19.965Z,7.66
2019-03-30T07:23:20.133Z,7.80
2019-03-30T07:24:20.304Z,8.23
2019-03-30T07:25:20.474Z,8.38
2019-03-30T07:26:20.647Z,8.69
2019-03-30T07:27:20.819Z,8.87
2019-03-30T07:28:20.994Z,9.28
2019-03-30T07:29:21.166Z,9.79
2019-03-30T07:30:21.337Z,9.86
2019-03-30T07:31:21.510Z,10.26
2019-03-30T07:32:21.680Z,10.68
2019-03-30T07:33:21.850Z,10.99
2019-03-30T07:34:22.023Z,11.29
2019-03-30T07:35:22.192Z,11.37
2019-03-30T07:36:22.364Z,11.62
2019-03-30T07:37:22.535Z,11.73
2019-03-30T07:38:22.699Z,11.99
2019-03-30T07:39:22.878Z,12.24
2019-03-30T07:40:23.050Z,12.32
2019-03-30T07:41:23.222Z,12.40
2019-03-30T07:42:23.397Z,12.67
2019-03-30T07:43:23.566Z,13.00
2019-03-30T07:44:23.740Z,13.11
2019-03-30T07:45:23.905Z,13.25
2019-03-30T07:46:24.072Z,13.47
2019-03-30T07:47:24.241Z,13.87
2019-03-30T07:48:24.394Z,14.04
2019-03-30T07:49:24.572Z,14.37
2019-03-30T07:50:24.742Z,14.72
2019-03-30T07:51:24.916Z,14.82
2019-03-30T07:52:25.087Z,14.92
2019-03-30T07:53:26.960Z,14.77
2019-03-30T07:54:25.439Z,14.54
2019-03-30T07:55:25.611Z,14.53
2019-03-30T07:56:25.782Z,14.47
2019-03-30T07:57:25.955Z,14.17
2019-03-30T07:58:26.130Z,14.23
2019-03-30T07:59:26.312Z,14.15
2019-03-30T08:00:30.677Z,14.41
2019-03-30T08:01:26.650Z,14.37
2019-03-30T08:02:26.826Z,14.30
2019-03-30T08:03:27.002Z,14.45
2019-03-30T08:04:28.682Z,14.62
2019-03-30T08:05:27.362Z,14.82
2019-03-30T08:06:27.533Z,14.88
2019-03-30T08:07:27.708Z,15.09
2019-03-30T08:08:27.883Z,15.19
2019-03-30T08:09:28.068Z,15.07
2019-03-30T08:10:28.241Z,15.31
2019-03-30T08:11:28.416Z,15.47
2019-03-30T08:12:28.590Z,15.51
2019-03-30T08:13:28.846Z,15.73
2019-03-30T08:14:28.940Z,15.84
2019-03-30T08:15:29.113Z,16.31
2019-03-30T08:16:29.289Z,16.47
2019-03-30T08:17:29.466Z,16.64
2019-03-30T08:18:29.633Z,16.53
2019-03-30T08:19:29.807Z,16.58
2019-03-30T08:20:29.989Z,16.89
2019-03-30T08:21:30.289Z,16.75
2019-03-30T08:22:30.361Z,16.79
2019-03-30T08:23:40.353Z,16.68
2019-03-30T08:24:30.687Z,16.78
2019-03-30T08:25:30.877Z,17.14
2019-03-30T08:26:31.045Z,17.33
2019-03-30T08:27:31.209Z,17.39
2019-03-30T08:28:31.381Z,17.41
2019-03-30T08:29:31.554Z,17.54
2019-03-30T08:30:31.730Z,17.65
2019-03-30T08:31:31.909Z,17.64
2019-03-30T08:32:32.109Z,17.65
2019-03-30T08:33:32.298Z,18.01
2019-03-30T08:34:32.444Z,17.94
2019-03-30T08:35:32.620Z,18.08
2019-03-30T08:36:32.796Z,18.47
2019-03-30T08:37:32.972Z,18.86
2019-03-30T08:38:33.146Z,18.99
2019-03-30T08:39:33.321Z,18.98
2019-03-30T08:40:33.494Z,19.12
2019-03-30T08:41:33.675Z,19.08
2019-03-30T08:42:33.853Z,18.99
2019-03-30T08:43:34.028Z,19.08
2019-03-30T08:44:34.201Z,19.26
2019-03-30T08:45:34.372Z,19.76
2019-03-30T08:46:34.538Z,19.59
2019-03-30T08:47:34.725Z,19.63
2019-03-30T08:48:34.904Z,19.45
2019-03-30T08:49:35.078Z,19.73
2019-03-30T08:50:35.253Z,19.66
2019-03-30T08:51:35.429Z,19.89
2019-03-30T08:52:35.606Z,20.07
2019-03-30T08:53:35.781Z,20.22
2019-03-30T08:54:35.962Z,20.14
2019-03-30T08:55:36.193Z,20.25
2019-03-30T08:56:36.312Z,20.44
2019-03-30T08:57:36.485Z,19.79
2019-03-30T08:58:36.662Z,19.73
2019-03-30T08:59:36.836Z,19.55
2019-03-30T09:00:37.015Z,19.92
2019-03-30T09:01:37.188Z,20.43
2019-03-30T09:02:37.363Z,20.74
2019-03-30T09:03:37.543Z,20.97
2019-03-30T09:04:37.729Z,21.39
2019-03-30T09:05:37.900Z,21.51
2019-03-30T09:06:38.238Z,21.77
2019-03-30T09:07:38.251Z,22.10
2019-03-30T09:08:38.426Z,22.11
2019-03-30T09:09:38.618Z,22.59
2019-03-30T09:10:38.784Z,22.66
2019-03-30T09:11:38.964Z,22.73
2019-03-30T09:12:39.141Z,22.54
2019-03-30T09:13:39.322Z,22.39
2019-03-30T09:14:39.485Z,22.30
2019-03-30T09:15:39.670Z,22.43
2019-03-30T09:16:39.851Z,22.55
2019-03-30T09:17:39.999Z,22.51
2019-03-30T09:18:40.259Z,22.60
2019-03-30T09:19:40.362Z,22.78
2019-03-30T09:20:40.544Z,22.84
2019-03-30T09:21:40.728Z,22.99
2019-03-30T09:22:40.904Z,23.00
2019-03-30T09:23:41.084Z,22.98
2019-03-30T09:24:41.259Z,23.08
2019-03-30T09:25:41.440Z,23.34
2019-03-30T09:26:41.625Z,23.55
2019-03-30T09:27:41.797Z,23.46
2019-03-30T09:28:41.975Z,23.68
2019-03-30T09:29:42.151Z,23.62
2019-03-30T09:30:42.335Z,23.61
2019-03-30T09:31:42.509Z,23.48
2019-03-30T09:32:45.009Z,23.17
2019-03-30T09:33:42.864Z,23.40
2019-03-30T09:34:43.045Z,23.69
2019-03-30T09:35:43.221Z,23.86
2019-03-30T09:36:43.497Z,24.05
2019-03-30T09:37:43.596Z,24.16
2019-03-30T09:38:43.759Z,24.16
2019-03-30T09:39:43.934Z,23.31
2019-03-30T09:40:44.109Z,22.93
2019-03-30T09:41:44.292Z,23.06
2019-03-30T09:42:44.470Z,23.24
2019-03-30T09:43:44.647Z,23.80
2019-03-30T09:44:44.825Z,24.11
2019-03-30T09:45:45.006Z,23.99
2019-03-30T09:46:45.186Z,23.84
2019-03-30T09:47:45.363Z,23.81
2019-03-30T09:48:45.544Z,23.81
2019-03-30T09:49:45.721Z,23.77
2019-03-30T09:50:45.896Z,24.03
2019-03-30T09:51:46.078Z,24.32
2019-03-30T09:52:46.249Z,24.03
2019-03-30T09:53:46.447Z,24.38
2019-03-30T09:54:46.621Z,24.47
2019-03-30T09:55:46.803Z,24.53
2019-03-30T09:56:46.980Z,24.73
2019-03-30T09:57:47.157Z,25.33
2019-03-30T09:58:47.340Z,25.29
2019-03-30T09:59:47.518Z,25.55
2019-03-30T10:00:47.704Z,25.62
2019-03-30T10:01:47.869Z,25.25
2019-03-30T10:02:48.051Z,25.31
2019-03-30T10:03:48.231Z,25.33
2019-03-30T10:04:48.417Z,25.43
2019-03-30T10:05:48.594Z,25.63
2019-03-30T10:06:48.773Z,25.33
2019-03-30T10:07:48.955Z,25.43
2019-03-30T10:08:49.142Z,25.36
2019-03-30T10:09:49.340Z,25.18
2019-03-30T10:10:49.516Z,25.16
2019-03-30T10:11:49.697Z,25.16
2019-03-30T10:12:49.875Z,25.07
2019-03-30T10:13:50.059Z,25.38
2019-03-30T10:14:50.237Z,25.54
2019-03-30T10:15:50.418Z,26.06
2019-03-30T10:16:50.598Z,26.16
2019-03-30T10:17:50.777Z,26.60
2019-03-30T10:18:50.960Z,26.81
2019-03-30T10:20:03.685Z,26.33
2019-03-30T10:20:51.322Z,26.36
2019-03-30T10:21:51.507Z,26.77
2019-03-30T10:22:51.685Z,26.52
2019-03-30T10:23:51.865Z,26.23
2019-03-30T10:24:52.044Z,26.31
2019-03-30T10:25:52.226Z,26.44
2019-03-30T10:26:52.405Z,26.26
2019-03-30T10:27:52.585Z,26.26
2019-03-30T10:28:52.766Z,26.31
2019-03-30T10:29:52.948Z,25.83
2019-03-30T10:30:53.129Z,25.95
2019-03-30T10:31:53.310Z,25.99
2019-03-30T10:32:53.491Z,25.91
2019-03-30T10:33:53.671Z,26.06
2019-03-30T10:34:53.851Z,26.34
2019-03-30T10:35:54.034Z,26.55
2019-03-30T10:36:54.222Z,26.38
2019-03-30T10:37:54.398Z,26.28
2019-03-30T10:38:54.579Z,26.19
2019-03-30T10:39:54.757Z,26.53
2019-03-30T10:40:54.940Z,26.83
2019-03-30T10:41:55.129Z,26.43
2019-03-30T10:42:55.308Z,26.84
2019-03-30T10:43:55.491Z,26.90
2019-03-30T10:44:55.671Z,27.18
2019-03-30T10:45:55.868Z,27.15
2019-03-30T10:46:56.025Z,27.21
2019-03-30T10:47:56.230Z,27.40
2019-03-30T10:48:56.470Z,27.64
2019-03-30T10:49:56.567Z,27.51
2019-03-30T10:50:56.764Z,27.47
2019-03-30T10:51:56.930Z,27.44
2019-03-30T10:52:57.107Z,27.18
2019-03-30T10:53:57.287Z,27.52
2019-03-30T10:54:57.468Z,27.22
2019-03-30T10:55:57.646Z,27.35
2019-03-30T10:56:57.834Z,27.68
2019-03-30T10:57:58.824Z,27.98
2019-03-30T10:58:58.205Z,28.02
2019-03-30T10:59:58.389Z,28.11
2019-03-30T11:00:58.604Z,27.93
2019-03-30T11:01:58.750Z,27.87
2019-03-30T11:02:58.932Z,27.64
2019-03-30T11:03:59.122Z,27.64
2019-03-30T11:04:59.298Z,27.40
2019-03-30T11:05:59.479Z,27.10
2019-03-30T11:06:59.661Z,27.39
2019-03-30T11:07:59.845Z,27.29
2019-03-30T11:09:00.029Z,27.47
2019-03-30T11:10:00.210Z,27.59
2019-03-30T11:11:00.392Z,27.64
2019-03-30T11:12:00.574Z,27.89
2019-03-30T11:13:00.803Z,28.00
2019-03-30T11:14:00.937Z,28.08
2019-03-30T11:15:01.125Z,28.54
2019-03-30T11:16:01.307Z,28.59
2019-03-30T11:17:01.487Z,28.39
2019-03-30T11:18:01.674Z,28.47
2019-03-30T11:19:01.855Z,28.69
2019-03-30T11:20:02.044Z,28.62
2019-03-30T11:21:02.219Z,29.04
2019-03-30T11:22:03.386Z,29.12
2019-03-30T11:23:02.591Z,28.81
2019-03-30T11:24:05.095Z,28.94
2019-03-30T11:25:08.032Z,28.54
2019-03-30T11:26:03.140Z,28.33
2019-03-30T11:27:03.320Z,27.27
2019-03-30T11:28:03.504Z,26.38
2019-03-30T11:29:03.691Z,24.77
2019-03-30T11:30:03.871Z,24.70
2019-03-30T11:31:05.546Z,24.29
2019-03-30T11:32:04.239Z,23.91
2019-03-30T11:33:04.424Z,23.80
2019-03-30T11:34:05.513Z,23.58
2019-03-30T11:35:04.783Z,23.39
2019-03-30T11:36:04.964Z,23.37
2019-03-30T11:37:05.154Z,23.46
2019-03-30T11:38:05.334Z,23.05
2019-03-30T11:39:05.511Z,22.98
2019-03-30T11:40:05.691Z,22.72
2019-03-30T11:41:05.876Z,22.36
2019-03-30T11:42:06.058Z,22.26
2019-03-30T11:43:06.237Z,22.10
2019-03-30T11:44:06.480Z,21.96
2019-03-30T11:45:06.596Z,22.07
2019-03-30T11:46:06.774Z,22.02
2019-03-30T11:47:06.952Z,21.93
2019-03-30T11:48:07.131Z,21.57
2019-03-30T11:49:07.312Z,21.64
2019-03-30T11:50:07.493Z,21.57
2019-03-30T11:51:07.669Z,21.60
2019-03-30T11:52:07.849Z,21.55
2019-03-30T11:53:08.025Z,21.55
2019-03-30T11:54:08.204Z,21.66
2019-03-30T11:55:21.033Z,21.66
2019-03-30T11:56:08.566Z,21.51
2019-03-30T11:57:08.830Z,21.45
2019-03-30T11:58:08.914Z,21.42
2019-03-30T11:59:09.093Z,21.30
2019-03-30T12:00:09.273Z,21.37
2019-03-30T12:01:09.446Z,21.24
2019-03-30T12:02:09.623Z,21.33
2019-03-30T12:03:09.803Z,21.42
2019-03-30T12:04:09.979Z,21.46
2019-03-30T12:05:10.156Z,21.48
2019-03-30T12:06:10.330Z,22.33
2019-03-30T12:07:10.508Z,22.62
2019-03-30T12:08:10.687Z,22.90
2019-03-30T12:09:10.863Z,23.20
2019-03-30T12:10:11.040Z,23.20
2019-03-30T12:11:11.220Z,24.24
2019-03-30T12:12:11.413Z,24.81
2019-03-30T12:13:11.585Z,26.13
2019-03-30T12:14:11.752Z,25.80
2019-03-30T12:15:11.930Z,25.59
2019-03-30T12:16:12.107Z,25.41
2019-03-30T12:17:12.283Z,24.73
2019-03-30T12:18:12.459Z,24.50
2019-03-30T12:19:12.638Z,24.26
2019-03-30T12:20:12.817Z,24.17
2019-03-30T12:21:12.994Z,24.01
2019-03-30T12:22:13.171Z,23.88
2019-03-30T12:23:13.351Z,24.89
2019-03-30T12:24:13.530Z,26.23
2019-03-30T12:25:13.706Z,27.40
2019-03-30T12:26:13.888Z,28.35
2019-03-30T12:27:14.064Z,29.13
2019-03-30T12:28:14.244Z,29.45
2019-03-30T12:29:14.443Z,29.13
2019-03-30T12:30:14.636Z,29.61
2019-03-30T12:31:14.798Z,29.91
2019-03-30T12:32:14.991Z,29.73
2019-03-30T12:33:15.155Z,29.97
2019-03-30T12:34:15.336Z,29.57
2019-03-30T12:35:15.516Z,29.75
2019-03-30T12:36:15.698Z,29.82
2019-03-30T12:37:15.885Z,30.05
2019-03-30T12:38:16.059Z,29.93
2019-03-30T12:39:16.238Z,29.32
2019-03-30T12:40:16.423Z,28.94
2019-03-30T12:41:16.606Z,28.86
2019-03-30T12:42:16.804Z,29.29
2019-03-30T12:43:16.976Z,29.32
2019-03-30T12:44:17.156Z,29.50
2019-03-30T12:45:17.338Z,29.59
2019-03-30T12:46:17.523Z,29.19
2019-03-30T12:47:17.706Z,29.24
2019-03-30T12:48:17.887Z,29.31
2019-03-30T12:49:18.069Z,29.35
2019-03-30T12:50:18.253Z,29.35
2019-03-30T12:51:18.436Z,29.49
2019-03-30T12:52:18.618Z,29.13
2019-03-30T12:53:18.802Z,29.07
2019-03-30T12:54:18.986Z,29.31
2019-03-30T12:55:19.169Z,29.47
2019-03-30T12:56:19.352Z,29.93
2019-03-30T12:57:19.536Z,29.66
2019-03-30T12:58:19.718Z,29.29
2019-03-30T12:59:19.901Z,29.12
2019-03-30T13:00:20.085Z,28.88
2019-03-30T13:01:20.270Z,28.49
2019-03-30T13:02:20.450Z,28.72
2019-03-30T13:03:20.633Z,28.76
2019-03-30T13:04:20.817Z,28.51
2019-03-30T13:05:20.992Z,28.30
2019-03-30T13:06:21.176Z,28.33
2019-03-30T13:07:21.360Z,28.72
2019-03-30T13:08:21.541Z,28.08
2019-03-30T13:09:21.726Z,27.59
2019-03-30T13:10:21.909Z,27.71
2019-03-30T13:11:22.091Z,27.75
2019-03-30T13:12:22.275Z,27.87
2019-03-30T13:13:22.459Z,28.08
2019-03-30T13:14:22.642Z,28.56
2019-03-30T13:15:22.824Z,29.13
2019-03-30T13:16:26.205Z,29.29
2019-03-30T13:17:23.194Z,29.60
2019-03-30T13:18:23.380Z,29.63
2019-03-30T13:19:23.574Z,29.38
2019-03-30T13:20:23.757Z,29.19
2019-03-30T13:21:23.938Z,29.20
2019-03-30T13:22:24.128Z,29.23
2019-03-30T13:23:24.306Z,29.35
2019-03-30T13:24:24.492Z,29.13
2019-03-30T13:25:24.673Z,29.22
2019-03-30T13:26:24.857Z,28.88
2019-03-30T13:27:25.037Z,28.45
2019-03-30T13:28:25.221Z,29.05
2019-03-30T13:29:25.404Z,28.93
2019-03-30T13:30:25.588Z,28.70
2019-03-30T13:31:25.773Z,28.93
2019-03-30T13:32:25.955Z,28.85
2019-03-30T13:33:26.138Z,29.12
2019-03-30T13:34:26.319Z,29.31
2019-03-30T13:35:26.504Z,29.50
2019-03-30T13:36:26.688Z,29.75
2019-03-30T13:37:26.869Z,29.82
2019-03-30T13:38:27.063Z,29.38
2019-03-30T13:39:27.237Z,29.87
2019-03-30T13:40:27.431Z,30.37
2019-03-30T13:41:27.614Z,30.61
2019-03-30T13:42:27.797Z,30.73
2019-03-30T13:43:27.981Z,30.44
2019-03-30T13:44:28.163Z,30.54
2019-03-30T13:45:28.360Z,30.57
2019-03-30T13:46:28.540Z,30.75
2019-03-30T13:47:28.725Z,30.46
2019-03-30T13:48:28.915Z,30.85
2019-03-30T13:49:29.818Z,30.85
2019-03-30T13:50:31.022Z,30.06
2019-03-30T13:51:29.462Z,29.34
2019-03-30T13:52:29.646Z,29.23
2019-03-30T13:53:29.830Z,29.19
2019-03-30T13:54:30.014Z,28.93
2019-03-30T13:55:30.197Z,27.87
2019-03-30T13:56:30.379Z,28.23
2019-03-30T13:57:30.570Z,28.14
2019-03-30T13:58:30.746Z,28.38
2019-03-30T13:59:30.939Z,28.69
2019-03-30T14:00:31.127Z,29.04
2019-03-30T14:41:20.231Z,29.22
2019-03-30T14:42:20.416Z,29.44
2019-03-30T14:43:20.599Z,29.36
2019-03-30T14:44:20.782Z,28.93
2019-03-30T14:45:20.968Z,28.26
2019-03-30T14:46:21.147Z,28.38
2019-03-30T14:47:21.332Z,28.15
2019-03-30T14:48:21.518Z,28.19
2019-03-30T14:49:21.704Z,28.11
2019-03-30T14:50:21.885Z,27.98
2019-03-30T14:51:22.068Z,28.60
2019-03-30T14:52:22.253Z,29.16
2019-03-30T14:53:22.460Z,28.91
2019-03-30T14:54:22.625Z,28.91
2019-03-30T14:55:22.806Z,29.07
2019-03-30T14:56:22.990Z,29.24
2019-03-30T14:57:23.174Z,28.85
2019-03-30T14:58:23.400Z,28.64
2019-03-30T14:59:23.541Z,28.66
2019-03-30T15:00:23.767Z,28.84
2019-03-30T15:01:23.907Z,29.10
2019-03-30T15:02:24.096Z,29.39
2019-03-30T15:03:24.278Z,29.71
2019-03-30T15:04:24.463Z,29.81
2019-03-30T15:05:24.644Z,29.35
2019-03-30T15:06:24.832Z,29.13
2019-03-30T15:07:25.013Z,28.42
2019-03-30T15:08:25.198Z,28.42
2019-03-30T15:09:25.381Z,28.57
2019-03-30T15:10:25.562Z,28.00
2019-03-30T15:11:25.750Z,28.19
2019-03-30T15:12:25.931Z,27.87
2019-03-30T15:13:26.115Z,26.60
2019-03-30T15:14:26.297Z,26.29
2019-03-30T15:15:26.478Z,25.32
2019-03-30T15:16:26.663Z,25.55
2019-03-30T15:17:26.847Z,25.93
2019-03-30T15:18:27.033Z,26.38
2019-03-30T15:19:27.215Z,26.34
2019-03-30T15:20:27.394Z,27.14
2019-03-30T15:21:27.574Z,27.29
2019-03-30T15:22:27.757Z,27.42
2019-03-30T15:23:27.939Z,27.18
2019-03-30T15:24:28.123Z,26.92
2019-03-30T15:25:28.306Z,27.20
2019-03-30T15:26:28.484Z,26.47
2019-03-30T15:27:28.664Z,25.91
2019-03-30T15:28:28.846Z,25.22
2019-03-30T15:29:29.022Z,25.63
2019-03-30T15:30:29.211Z,25.75
2019-03-30T15:31:29.393Z,26.02
2019-03-30T15:32:29.574Z,25.80
2019-03-30T15:33:29.761Z,25.84
2019-03-30T15:34:29.935Z,26.02
2019-03-30T15:35:30.116Z,26.03
2019-03-30T15:36:30.304Z,25.78
2019-03-30T15:37:30.480Z,25.41
2019-03-30T15:38:30.662Z,25.06
2019-03-30T15:39:30.844Z,25.26
2019-03-30T15:40:31.028Z,25.17
2019-03-30T15:41:31.216Z,24.63
2019-03-30T15:42:31.393Z,24.48
2019-03-30T15:43:38.045Z,24.11
2019-03-30T15:44:31.747Z,23.84
2019-03-30T15:45:31.933Z,23.87
2019-03-30T15:46:32.111Z,23.83
2019-03-30T15:47:32.286Z,23.32
2019-03-30T15:48:32.470Z,23.69
2019-03-30T15:49:32.644Z,23.91
2019-03-30T15:50:32.822Z,23.98
2019-03-30T15:51:33.002Z,24.21
2019-03-30T15:52:33.181Z,24.40
2019-03-30T15:53:33.365Z,24.61
2019-03-30T15:54:33.540Z,24.91
2019-03-30T15:55:33.717Z,24.93
2019-03-30T15:56:33.896Z,24.89
2019-03-30T15:57:34.077Z,24.74
2019-03-30T15:58:34.265Z,24.02
2019-03-30T15:59:34.438Z,23.63
2019-03-30T16:00:34.617Z,23.61
2019-03-30T16:01:34.799Z,23.66
2019-03-30T16:02:34.996Z,23.43
2019-03-30T16:03:35.153Z,23.21
2019-03-30T16:04:35.331Z,23.25
2019-03-30T16:05:35.509Z,23.48
2019-03-30T16:06:35.690Z,23.39
2019-03-30T16:07:35.870Z,23.10
2019-03-30T16:08:36.042Z,23.15
2019-03-30T16:09:36.219Z,23.40
2019-03-30T16:10:36.402Z,23.48
2019-03-30T16:11:36.579Z,23.59
2019-03-30T16:12:36.757Z,23.51
2019-03-30T16:13:36.936Z,23.74
2019-03-30T16:14:37.117Z,23.73
2019-03-30T16:15:37.296Z,23.73
2019-03-30T16:16:37.479Z,23.63
2019-03-30T16:17:37.652Z,23.41
2019-03-30T16:18:37.830Z,23.23
2019-03-30T16:19:38.009Z,23.31
2019-03-30T16:20:38.189Z,23.39
2019-03-30T16:21:38.365Z,23.39
2019-03-30T16:22:38.545Z,23.39
2019-03-30T16:23:38.720Z,23.39
2019-03-30T16:24:38.965Z,23.32
2019-03-30T16:25:39.082Z,23.24
2019-03-30T16:26:42.342Z,23.25
2019-03-30T16:27:39.763Z,23.05
2019-03-30T16:28:39.625Z,23.10
2019-03-30T16:29:39.807Z,23.10
2019-03-30T16:30:39.989Z,22.96
2019-03-30T16:31:40.169Z,22.84
2019-03-30T16:32:40.353Z,22.88
2019-03-30T16:33:40.527Z,22.84
2019-03-30T16:34:40.704Z,22.94
2019-03-30T16:35:40.884Z,22.72
2019-03-30T16:36:41.066Z,22.55
2019-03-30T16:37:41.249Z,22.62
2019-03-30T16:38:41.426Z,22.45
2019-03-30T16:39:41.608Z,22.45
2019-03-30T16:40:41.785Z,22.51
2019-03-30T16:41:41.963Z,22.53
2019-03-30T16:42:42.141Z,22.39
2019-03-30T16:43:42.315Z,22.26
2019-03-30T16:44:42.494Z,22.38
2019-03-30T16:45:42.666Z,22.35
2019-03-30T16:46:42.847Z,22.25
2019-03-30T16:47:43.021Z,22.33
2019-03-30T16:48:43.197Z,22.32
2019-03-30T16:49:43.376Z,22.26
2019-03-30T16:50:43.553Z,22.35
2019-03-30T16:51:43.731Z,22.28
2019-03-30T16:52:43.909Z,22.22
2019-03-30T16:53:47.173Z,22.10
2019-03-30T16:54:44.265Z,22.13
2019-03-30T16:55:44.444Z,22.25
2019-03-30T16:56:44.616Z,22.10
2019-03-30T16:57:44.793Z,21.98
2019-03-30T16:58:44.966Z,21.79
2019-03-30T16:59:45.148Z,21.62
2019-03-30T17:00:56.322Z,21.58
2019-03-30T17:01:45.500Z,21.58
2019-03-30T17:02:45.676Z,21.57
2019-03-30T17:03:45.850Z,21.61
2019-03-30T17:04:46.026Z,21.48
2019-03-30T17:05:46.206Z,21.43
2019-03-30T17:06:46.384Z,21.43
2019-03-30T17:07:46.554Z,21.36
2019-03-30T17:08:46.731Z,21.33
2019-03-30T17:09:46.905Z,21.27
2019-03-30T17:10:47.081Z,21.03
2019-03-30T17:11:47.257Z,20.81
2019-03-30T17:12:47.432Z,20.56
2019-03-30T17:13:47.607Z,20.55
2019-03-30T17:14:47.785Z,20.43
2019-03-30T17:15:47.963Z,20.43
2019-03-30T17:16:48.143Z,20.24
2019-03-30T17:17:48.316Z,20.10
2019-03-30T17:18:48.495Z,20.10
2019-03-30T17:19:48.675Z,20.04
2019-03-30T17:20:48.851Z,20.04
2019-03-30T17:21:49.028Z,19.91
2019-03-30T17:22:49.205Z,19.89
2019-03-30T17:23:49.381Z,19.86
2019-03-30T17:24:49.555Z,19.76
2019-03-30T17:25:49.736Z,19.63
2019-03-30T17:26:49.910Z,19.56
2019-03-30T17:27:57.969Z,19.47
2019-03-30T17:28:50.262Z,19.39
2019-03-30T17:29:50.437Z,19.27
2019-03-30T17:30:50.616Z,19.19
2019-03-30T17:31:50.790Z,19.08
2019-03-30T17:32:50.966Z,19.08
2019-03-30T17:33:51.147Z,19.04
2019-03-30T17:34:51.323Z,19.00
2019-03-30T17:35:51.498Z,18.90
2019-03-30T17:36:51.675Z,18.75
2019-03-30T17:37:51.847Z,18.66
2019-03-30T17:38:52.024Z,18.60
2019-03-30T17:39:52.201Z,18.50
2019-03-30T17:40:52.376Z,18.52
2019-03-30T17:41:52.551Z,18.45
2019-03-30T17:42:52.724Z,18.33
2019-03-30T17:43:52.899Z,18.28
2019-03-30T17:44:53.073Z,18.26
2019-03-30T17:45:53.248Z,18.22
2019-03-30T17:46:53.426Z,18.10
2019-03-30T17:47:53.600Z,18.13
2019-03-30T17:48:53.774Z,18.11
2019-03-30T17:49:53.948Z,18.03
2019-03-30T17:50:54.123Z,17.95
2019-03-30T17:51:54.299Z,17.89
2019-03-30T17:52:54.472Z,17.90
2019-03-30T17:53:54.656Z,17.65
2019-03-30T17:54:54.830Z,17.60
2019-03-30T17:55:55.005Z,17.41
2019-03-30T17:56:55.175Z,17.38
2019-03-30T17:57:55.349Z,17.30
2019-03-30T17:58:55.528Z,17.20
2019-03-30T17:59:55.699Z,17.16
2019-03-30T18:00:55.874Z,17.14
2019-03-30T18:01:56.051Z,17.19
2019-03-30T18:02:56.226Z,17.23
2019-03-30T18:03:56.399Z,17.12
2019-03-30T18:04:56.576Z,17.12
2019-03-30T18:05:56.747Z,17.01
2019-03-30T18:06:56.921Z,16.97
2019-03-30T18:07:57.094Z,17.04
2019-03-30T18:08:57.273Z,16.81
2019-03-30T18:09:57.443Z,16.74
2019-03-30T18:10:57.629Z,16.66
2019-03-30T18:11:57.800Z,16.57
2019-03-30T18:12:57.974Z,16.57
2019-03-30T18:13:58.149Z,16.50
2019-03-30T18:14:58.324Z,16.57
2019-03-30T18:15:58.500Z,16.50
2019-03-30T18:16:58.672Z,16.49
2019-03-30T18:17:58.846Z,16.39
2019-03-30T18:18:59.025Z,16.41
2019-03-30T18:19:59.198Z,16.33
2019-03-30T18:20:59.374Z,16.31
2019-03-30T18:21:59.542Z,16.28
2019-03-30T18:22:59.715Z,16.02
2019-03-30T18:23:59.888Z,16.10
2019-03-30T18:25:00.063Z,16.02
2019-03-30T18:26:00.314Z,15.92
2019-03-30T18:27:00.421Z,15.94
2019-03-30T18:28:00.591Z,15.82
2019-03-30T18:29:00.763Z,15.73
2019-03-30T18:30:00.937Z,15.59
2019-03-30T18:31:01.115Z,15.61
2019-03-30T18:32:01.292Z,15.64
2019-03-30T18:33:01.463Z,15.44
2019-03-30T18:34:01.634Z,15.47
2019-03-30T18:35:01.810Z,15.35
2019-03-30T18:36:01.984Z,15.28
2019-03-30T18:37:02.157Z,15.24
2019-03-30T18:38:02.332Z,15.11
2019-03-30T18:39:09.468Z,15.09
2019-03-30T18:40:02.676Z,15.04